createdAt,value
2023-01-09T00:00:37.946Z,2.97
2023-01-09T00:03:06.879Z,2.97
2023-01-09T00:05:34.517Z,3.80
2023-01-09T00:08:02.219Z,3.53
2023-01-09T00:10:29.884Z,3.70
2023-01-09T00:12:57.575Z,3.57
2023-01-09T00:15:25.387Z,2.83
2023-01-09T00:17:53.065Z,3.63
2023-01-09T00:20:22.055Z,3.07
2023-01-09T00:22:49.767Z,3.03
2023-01-09T00:25:17.570Z,2.90
2023-01-09T00:27:45.245Z,3.30
2023-01-09T00:30:13.093Z,3.07
2023-01-09T00:32:41.015Z,2.60
2023-01-09T00:35:09.766Z,3.17
2023-01-09T00:37:38.851Z,3.27
2023-01-09T00:40:06.830Z,3.47
2023-01-09T00:42:36.445Z,3.00
2023-01-09T00:45:05.418Z,3.60
2023-01-09T00:47:36.030Z,3.37
2023-01-09T00:50:05.955Z,3.60
2023-01-09T00:52:35.853Z,3.80
2023-01-09T00:55:05.235Z,3.47
2023-01-09T00:57:32.889Z,4.23
2023-01-09T01:00:00.783Z,3.97
2023-01-09T01:02:28.546Z,4.40
2023-01-09T01:05:05.893Z,4.33
2023-01-09T01:07:41.462Z,3.30
2023-01-09T01:10:11.800Z,3.30
2023-01-09T01:12:39.668Z,2.30
2023-01-09T01:15:08.133Z,2.23
2023-01-09T01:17:36.279Z,2.40
2023-01-09T01:20:04.698Z,2.10
2023-01-09T01:22:32.844Z,2.60
2023-01-09T01:25:00.604Z,2.80
2023-01-09T01:27:29.823Z,3.07
2023-01-09T01:29:57.530Z,2.80
2023-01-09T01:32:25.180Z,2.70
2023-01-09T01:34:52.840Z,2.60
2023-01-09T01:37:21.876Z,2.53
2023-01-09T01:39:49.582Z,2.20
2023-01-09T01:42:17.292Z,2.20
2023-01-09T01:44:54.401Z,2.67
2023-01-09T01:47:24.463Z,1.97
2023-01-09T01:49:53.235Z,2.77
2023-01-09T01:52:21.607Z,2.17
2023-01-09T01:54:49.664Z,2.93
2023-01-09T01:57:17.365Z,2.90
2023-01-09T01:59:50.167Z,2.60
2023-01-09T02:02:19.189Z,2.90
2023-01-09T02:04:48.960Z,2.67
2023-01-09T02:07:16.693Z,2.40
2023-01-09T02:09:46.287Z,2.33
2023-01-09T02:12:16.323Z,1.77
2023-01-09T02:14:44.399Z,1.70
2023-01-09T02:17:17.657Z,1.43
2023-01-09T02:20:00.904Z,1.60
2023-01-09T02:22:31.881Z,1.33
2023-01-09T02:25:09.994Z,1.40
2023-01-09T02:27:48.885Z,1.63
2023-01-09T02:30:23.932Z,2.13
2023-01-09T02:32:57.801Z,1.17
2023-01-09T02:35:33.742Z,0.80
2023-01-09T02:38:04.430Z,0.90
2023-01-09T02:40:34.706Z,0.90
2023-01-09T02:43:03.294Z,0.90
2023-01-09T02:45:32.333Z,0.80
2023-01-09T02:48:00.129Z,1.10
2023-01-09T02:50:31.937Z,0.90
2023-01-09T02:53:06.911Z,0.70
2023-01-09T02:55:41.149Z,0.70
2023-01-09T02:58:10.477Z,0.70
2023-01-09T03:00:44.030Z,0.80
2023-01-09T03:03:13.299Z,0.70
2023-01-09T03:05:43.454Z,0.60
2023-01-09T03:08:14.031Z,0.70
2023-01-09T03:10:45.215Z,0.80
2023-01-09T03:13:14.258Z,0.80
2023-01-09T03:15:45.294Z,0.93
2023-01-09T03:20:59.106Z,0.80
2023-01-09T03:23:26.763Z,0.70
2023-01-09T03:25:54.386Z,0.90
2023-01-09T03:28:27.031Z,1.07
2023-01-09T03:30:56.543Z,0.80
2023-01-09T03:33:24.218Z,0.90
2023-01-09T03:35:51.865Z,1.00
2023-01-09T03:38:19.541Z,0.90
2023-01-09T03:40:47.477Z,0.70
2023-01-09T03:43:15.095Z,0.80
2023-01-09T03:45:43.661Z,0.80
2023-01-09T03:48:12.621Z,0.90
2023-01-09T03:50:42.502Z,0.80
2023-01-09T03:53:10.160Z,0.70
2023-01-09T03:55:37.966Z,0.70
2023-01-09T03:58:05.643Z,0.70
2023-01-09T04:00:33.315Z,0.80
2023-01-09T04:03:00.996Z,0.80
2023-01-09T04:05:29.892Z,0.80
2023-01-09T04:07:57.696Z,0.80
2023-01-09T04:10:25.744Z,0.80
2023-01-09T04:12:53.492Z,0.90
2023-01-09T04:15:21.355Z,0.87
2023-01-09T04:17:49.080Z,0.80
2023-01-09T04:20:16.828Z,0.80
2023-01-09T04:22:45.798Z,0.80
2023-01-09T04:25:13.552Z,0.80
2023-01-09T04:27:41.410Z,0.70
2023-01-09T04:30:09.869Z,0.80
2023-01-09T04:32:37.503Z,0.70
2023-01-09T04:35:05.503Z,0.80
2023-01-09T04:37:33.319Z,0.70
2023-01-09T04:40:06.043Z,0.80
2023-01-09T04:42:33.749Z,0.90
2023-01-09T04:45:01.635Z,0.70
2023-01-09T04:47:31.120Z,0.80
2023-01-09T04:49:58.828Z,0.70
2023-01-09T04:52:26.688Z,0.70
2023-01-09T04:54:54.345Z,0.90
2023-01-09T04:57:23.391Z,0.80
2023-01-09T04:59:52.212Z,0.80
2023-01-09T05:02:20.009Z,0.80
2023-01-09T05:04:48.293Z,1.00
2023-01-09T05:07:15.978Z,0.80
2023-01-09T05:09:44.652Z,0.83
2023-01-09T05:12:12.369Z,0.80
2023-01-09T05:14:41.411Z,0.80
2023-01-09T05:17:09.160Z,0.90
2023-01-09T05:19:36.859Z,0.80
2023-01-09T05:22:04.579Z,0.80
2023-01-09T05:24:32.256Z,0.90
2023-01-09T05:26:59.906Z,1.10
2023-01-09T05:29:27.566Z,0.80
2023-01-09T05:31:56.898Z,0.90
2023-01-09T05:34:25.055Z,0.90
2023-01-09T05:36:53.041Z,1.00
2023-01-09T05:39:20.667Z,1.20
2023-01-09T05:41:48.362Z,0.90
2023-01-09T05:44:16.115Z,0.90
2023-01-09T05:46:43.730Z,0.90
2023-01-09T05:49:12.705Z,0.80
2023-01-09T05:51:40.424Z,0.90
2023-01-09T05:54:08.357Z,0.90
2023-01-09T05:56:36.021Z,0.80
2023-01-09T05:59:03.734Z,0.73
2023-01-09T06:01:31.535Z,1.10
2023-01-09T06:03:59.265Z,0.80
2023-01-09T06:06:28.277Z,0.80
2023-01-09T06:08:56.005Z,0.80
2023-01-09T06:11:23.693Z,0.97
2023-01-09T06:13:51.349Z,0.83
2023-01-09T06:16:19.064Z,0.97
2023-01-09T06:18:46.840Z,0.70
2023-01-09T06:21:14.876Z,0.90
2023-01-09T06:23:44.072Z,1.10
2023-01-09T06:26:11.760Z,0.90
2023-01-09T06:28:39.682Z,0.90
2023-01-09T06:31:07.404Z,0.80
2023-01-09T06:33:35.123Z,0.80
2023-01-09T06:36:02.866Z,0.90
2023-01-09T06:38:30.511Z,0.93
2023-01-09T06:40:59.834Z,1.00
2023-01-09T06:43:27.577Z,1.00
2023-01-09T06:45:55.265Z,1.07
2023-01-09T06:48:24.909Z,1.00
2023-01-09T06:50:52.795Z,1.00
2023-01-09T06:53:21.070Z,1.13
2023-01-09T06:55:48.711Z,2.30
2023-01-09T06:58:18.065Z,1.10
2023-01-09T07:00:46.002Z,0.87
2023-01-09T07:03:19.598Z,1.10
2023-01-09T07:05:47.479Z,1.27
2023-01-09T07:08:15.305Z,0.90
2023-01-09T07:10:43.010Z,0.83
2023-01-09T07:13:10.892Z,0.80
2023-01-09T07:15:40.677Z,1.00
2023-01-09T07:18:08.403Z,1.20
2023-01-09T07:20:36.177Z,1.20
2023-01-09T07:23:03.829Z,1.10
2023-01-09T07:25:31.506Z,1.10
2023-01-09T07:27:59.166Z,1.03
2023-01-09T07:30:26.866Z,1.00
2023-01-09T07:32:55.826Z,1.20
2023-01-09T07:35:23.643Z,1.00
2023-01-09T07:37:51.279Z,1.20
2023-01-09T07:40:19.001Z,1.10
2023-01-09T07:42:46.645Z,1.13
2023-01-09T07:45:14.317Z,1.10
2023-01-09T07:47:43.828Z,1.13
2023-01-09T07:50:13.037Z,1.00
2023-01-09T07:52:40.756Z,1.00
2023-01-09T07:55:08.991Z,0.93
2023-01-09T07:57:36.765Z,0.90
2023-01-09T08:00:06.761Z,0.90
2023-01-09T08:02:41.730Z,1.10
2023-01-09T08:05:13.620Z,0.80
2023-01-09T08:07:42.655Z,0.90
2023-01-09T08:10:11.488Z,0.80
2023-01-09T08:12:39.239Z,0.90
2023-01-09T08:15:07.582Z,0.90
2023-01-09T08:17:35.259Z,0.90
2023-01-09T08:20:02.950Z,0.90
2023-01-09T08:22:30.595Z,0.90
2023-01-09T08:24:59.617Z,1.17
2023-01-09T08:27:27.407Z,1.00
2023-01-09T08:29:55.076Z,1.00
2023-01-09T08:32:22.761Z,0.90
2023-01-09T08:34:50.503Z,1.00
2023-01-09T08:37:18.266Z,1.40
2023-01-09T08:39:47.949Z,1.10
2023-01-09T08:42:26.904Z,1.17
2023-01-09T08:45:03.306Z,0.93
2023-01-09T08:47:33.364Z,0.90
2023-01-09T08:50:01.407Z,1.00
2023-01-09T08:52:30.569Z,1.17
2023-01-09T08:54:58.384Z,0.90
2023-01-09T08:57:27.419Z,1.07
2023-01-09T08:59:55.143Z,1.10
2023-01-09T09:02:22.878Z,1.00
2023-01-09T09:04:52.919Z,1.17
2023-01-09T09:07:26.376Z,1.20
2023-01-09T09:09:54.498Z,0.90
2023-01-09T09:12:22.262Z,1.20
2023-01-09T09:15:00.586Z,1.00
2023-01-09T09:17:28.916Z,1.07
2023-01-09T09:19:56.593Z,1.03
2023-01-09T09:22:24.226Z,1.00
2023-01-09T09:24:51.933Z,1.00
2023-01-09T09:27:19.737Z,1.07
2023-01-09T09:29:47.442Z,1.10
2023-01-09T09:32:16.643Z,0.90
2023-01-09T09:34:44.313Z,0.90
2023-01-09T09:37:12.047Z,0.83
2023-01-09T09:39:39.850Z,0.90
2023-01-09T09:42:24.851Z,0.70
2023-01-09T09:44:59.373Z,0.90
2023-01-09T09:47:37.929Z,0.87
2023-01-09T09:50:11.271Z,0.83
2023-01-09T09:52:43.081Z,0.80
2023-01-09T09:55:16.666Z,1.00
2023-01-09T09:57:45.078Z,0.80
2023-01-09T10:00:16.731Z,0.77
2023-01-09T10:02:50.476Z,0.87
2023-01-09T10:05:20.921Z,1.03
2023-01-09T10:07:50.900Z,1.00
2023-01-09T10:10:23.620Z,0.80
2023-01-09T10:12:54.287Z,1.07
2023-01-09T10:15:27.204Z,1.00
2023-01-09T10:18:01.181Z,0.90
2023-01-09T10:20:37.091Z,0.73
2023-01-09T10:23:11.212Z,1.00
2023-01-09T10:25:42.689Z,0.80
2023-01-09T10:28:22.431Z,0.80
2023-01-09T10:30:51.601Z,0.70
2023-01-09T10:33:25.557Z,0.73
2023-01-09T10:36:04.263Z,0.75
2023-01-09T10:38:34.231Z,0.80
2023-01-09T10:41:04.116Z,0.80
2023-01-09T10:43:35.645Z,9.55
2023-01-09T10:46:04.821Z,3.20
2023-01-09T10:48:35.756Z,0.90
2023-01-09T10:51:04.546Z,0.70
2023-01-09T10:53:39.850Z,0.60
2023-01-09T10:56:09.568Z,0.77
2023-01-09T10:58:37.250Z,0.70
2023-01-09T11:01:05.338Z,0.60
2023-01-09T11:03:34.351Z,0.50
2023-01-09T11:06:02.829Z,0.63
2023-01-09T11:08:31.977Z,0.85
2023-01-09T11:11:00.877Z,0.60
2023-01-09T11:13:30.307Z,0.77
2023-01-09T11:16:02.041Z,0.60
2023-01-09T11:18:29.736Z,0.70
2023-01-09T11:21:12.847Z,0.77
2023-01-09T11:23:40.560Z,0.60
2023-01-09T11:26:21.709Z,0.90
2023-01-09T11:29:05.224Z,0.65
2023-01-09T11:31:33.043Z,0.60
2023-01-09T11:34:00.863Z,0.68
2023-01-09T11:36:30.202Z,0.63
2023-01-09T11:38:58.471Z,0.70
2023-01-09T11:41:27.878Z,0.70
2023-01-09T11:43:56.757Z,0.80
2023-01-09T11:46:37.263Z,0.95
2023-01-09T11:49:05.895Z,0.90
2023-01-09T11:51:36.811Z,0.75
2023-01-09T11:54:12.188Z,0.90
2023-01-09T11:56:40.922Z,0.90
2023-01-09T11:59:11.145Z,0.80
2023-01-09T12:01:45.208Z,0.93
2023-01-09T12:04:18.215Z,0.70
2023-01-09T12:06:54.968Z,0.70
2023-01-09T12:09:25.996Z,0.90
2023-01-09T12:11:55.653Z,0.90
2023-01-09T12:14:31.999Z,0.90
2023-01-09T12:17:07.770Z,0.80
2023-01-09T12:19:43.196Z,0.70
2023-01-09T12:22:19.195Z,0.82
2023-01-09T12:24:55.219Z,0.80
2023-01-09T12:27:26.608Z,0.90
2023-01-09T12:30:02.338Z,0.90
2023-01-09T12:32:35.053Z,0.97
2023-01-09T12:35:06.342Z,0.82
2023-01-09T12:37:44.500Z,0.70
2023-01-09T12:40:22.473Z,0.70
2023-01-09T12:42:53.797Z,0.90
2023-01-09T12:45:31.876Z,0.80
2023-01-09T12:48:04.158Z,0.93
2023-01-09T12:50:39.519Z,0.70
2023-01-09T12:53:12.074Z,0.60
2023-01-09T12:55:41.787Z,0.80
2023-01-09T12:58:13.687Z,0.80
2023-01-09T13:00:42.809Z,0.80
2023-01-09T13:03:16.284Z,0.70
2023-01-09T13:05:45.420Z,0.93
2023-01-09T13:08:16.551Z,0.90
2023-01-09T13:10:46.111Z,0.80
2023-01-09T13:13:16.384Z,0.77
2023-01-09T13:15:45.754Z,0.70
2023-01-09T13:18:15.685Z,0.80
2023-01-09T13:20:45.506Z,0.77
2023-01-09T13:23:18.217Z,0.77
2023-01-09T13:25:46.960Z,0.60
2023-01-09T13:28:17.370Z,0.63
2023-01-09T13:30:52.765Z,0.75
2023-01-09T13:33:21.258Z,0.60
2023-01-09T13:35:49.754Z,0.70
2023-01-09T13:38:21.033Z,0.80
2023-01-09T13:40:48.839Z,0.80
2023-01-09T13:43:16.688Z,0.60
2023-01-09T13:45:44.922Z,0.65
2023-01-09T13:48:23.175Z,0.67
2023-01-09T13:50:52.850Z,0.70
2023-01-09T13:53:32.505Z,0.70
2023-01-09T13:56:07.018Z,0.70
2023-01-09T13:58:49.506Z,0.80
2023-01-09T14:01:35.976Z,0.70
2023-01-09T14:04:18.479Z,0.80
2023-01-09T14:07:14.180Z,0.77
2023-01-09T14:09:46.901Z,0.83
2023-01-09T14:12:16.504Z,0.67
2023-01-09T14:14:46.192Z,0.63
2023-01-09T14:17:17.167Z,0.90
2023-01-09T14:19:45.001Z,0.90
2023-01-09T14:22:24.410Z,0.70
2023-01-09T14:24:53.374Z,1.03
2023-01-09T14:27:33.323Z,0.80
2023-01-09T14:30:15.825Z,0.90
2023-01-09T14:32:45.849Z,0.70
2023-01-09T14:35:18.702Z,0.73
2023-01-09T14:37:50.785Z,0.97
2023-01-09T14:40:21.914Z,0.90
2023-01-09T14:42:52.957Z,0.70
2023-01-09T14:45:22.185Z,0.80
2023-01-09T14:47:53.227Z,0.80
2023-01-09T14:50:26.280Z,1.60
2023-01-09T14:52:55.708Z,1.03
2023-01-09T14:55:26.707Z,0.90
2023-01-09T14:57:56.956Z,0.90
2023-01-09T15:00:24.795Z,0.90
2023-01-09T15:02:54.302Z,1.00
2023-01-09T15:05:23.502Z,0.83
2023-01-09T15:07:53.057Z,0.90
2023-01-09T15:10:22.073Z,0.90
2023-01-09T15:12:51.085Z,0.90
2023-01-09T15:15:19.630Z,1.00
2023-01-09T15:17:51.066Z,1.07
2023-01-09T15:20:24.834Z,1.07
2023-01-09T15:22:54.867Z,1.00
2023-01-09T15:25:33.794Z,1.10
2023-01-09T15:28:22.801Z,0.80
2023-01-09T15:30:53.935Z,1.10
2023-01-09T15:33:21.796Z,1.10
2023-01-09T15:35:52.086Z,0.90
2023-01-09T15:38:23.142Z,1.00
2023-01-09T15:40:54.027Z,0.90
2023-01-09T15:43:22.047Z,0.80
2023-01-09T15:45:50.221Z,1.00
2023-01-09T15:48:26.545Z,1.03
2023-01-09T15:50:57.614Z,1.00
2023-01-09T15:53:26.393Z,0.90
2023-01-09T15:56:03.897Z,1.17
2023-01-09T15:58:34.498Z,0.93
2023-01-09T16:01:04.025Z,1.53
2023-01-09T16:03:31.960Z,0.80
2023-01-09T16:06:05.547Z,0.90
2023-01-09T16:08:36.144Z,0.90
2023-01-09T16:11:05.088Z,1.00
2023-01-09T16:13:33.790Z,1.00
2023-01-09T16:16:02.534Z,1.20
2023-01-09T16:18:32.310Z,1.20
2023-01-09T16:21:14.777Z,1.10
2023-01-09T16:23:51.610Z,1.10
2023-01-09T16:26:21.854Z,1.00
2023-01-09T16:28:49.503Z,0.93
2023-01-09T16:31:20.175Z,0.90
2023-01-09T16:33:52.069Z,1.13
2023-01-09T16:36:21.176Z,1.10
2023-01-09T16:38:50.143Z,1.13
2023-01-09T16:41:28.968Z,1.37
2023-01-09T16:43:57.188Z,1.00
2023-01-09T16:46:25.153Z,1.50
2023-01-09T16:48:54.354Z,1.10
2023-01-09T16:51:23.417Z,1.40
2023-01-09T16:53:52.471Z,1.40
2023-01-09T16:56:22.015Z,1.27
2023-01-09T16:58:50.321Z,1.23
2023-01-09T17:01:18.085Z,1.00
2023-01-09T17:03:45.922Z,1.23
2023-01-09T17:06:15.996Z,1.13
2023-01-09T17:08:44.774Z,1.13
2023-01-09T17:11:19.491Z,1.20
2023-01-09T17:13:47.959Z,1.10
2023-01-09T17:16:17.626Z,1.10
2023-01-09T17:18:45.553Z,1.10
2023-01-09T17:21:16.291Z,0.90
2023-01-09T17:23:44.028Z,1.60
2023-01-09T17:26:25.770Z,1.93
2023-01-09T17:28:54.828Z,1.80
2023-01-09T17:31:22.536Z,1.30
2023-01-09T17:33:50.240Z,1.30
2023-01-09T17:36:20.865Z,1.03
2023-01-09T17:38:54.650Z,0.93
2023-01-09T17:41:22.674Z,1.13
2023-01-09T17:43:50.329Z,1.10
2023-01-09T17:46:22.496Z,1.00
2023-01-09T17:48:50.470Z,1.13
2023-01-09T17:51:18.116Z,1.10
2023-01-09T17:53:45.866Z,1.20
2023-01-09T17:56:16.089Z,1.47
2023-01-09T17:58:45.727Z,1.60
2023-01-09T18:01:13.980Z,1.33
2023-01-09T18:03:43.188Z,1.57
2023-01-09T18:06:11.703Z,1.70
2023-01-09T18:08:40.426Z,1.10
2023-01-09T18:11:10.251Z,1.73
2023-01-09T18:13:37.907Z,1.07
2023-01-09T18:16:05.946Z,1.20
2023-01-09T18:18:33.761Z,1.33
2023-01-09T18:21:04.870Z,1.27
2023-01-09T18:23:32.584Z,1.30
2023-01-09T18:26:00.300Z,0.80
2023-01-09T18:28:27.939Z,0.90
2023-01-09T18:30:55.609Z,1.10
2023-01-09T18:33:23.592Z,1.43
2023-01-09T18:35:52.269Z,1.80
2023-01-09T18:38:21.589Z,0.90
2023-01-09T18:40:49.702Z,1.00
2023-01-09T18:43:20.217Z,0.90
2023-01-09T18:45:47.933Z,0.90
2023-01-09T18:48:15.819Z,1.00
2023-01-09T18:50:45.558Z,1.23
2023-01-09T18:53:13.439Z,1.00
2023-01-09T18:55:42.418Z,1.07
2023-01-09T18:58:10.290Z,0.90
2023-01-09T19:00:37.975Z,0.80
2023-01-09T19:03:05.644Z,1.10
2023-01-09T19:05:33.384Z,1.00
2023-01-09T19:08:01.035Z,1.07
2023-01-09T19:10:29.053Z,1.80
2023-01-09T19:12:58.371Z,0.97
2023-01-09T19:15:27.284Z,1.00
2023-01-09T19:18:03.867Z,1.27
2023-01-09T19:20:31.914Z,1.10
2023-01-09T19:22:59.608Z,1.03
2023-01-09T19:25:27.253Z,0.90
2023-01-09T19:27:56.082Z,0.90
2023-01-09T19:30:25.072Z,1.13
2023-01-09T19:32:52.911Z,1.00
2023-01-09T19:35:20.699Z,1.00
2023-01-09T19:37:48.433Z,1.07
2023-01-09T19:40:16.119Z,1.00
2023-01-09T19:42:43.801Z,0.97
2023-01-09T19:45:11.535Z,1.23
2023-01-09T19:47:40.842Z,1.10
2023-01-09T19:50:09.226Z,1.00
2023-01-09T19:52:37.485Z,0.97
2023-01-09T19:55:05.325Z,1.20
2023-01-09T19:57:32.991Z,0.90
2023-01-09T20:00:00.747Z,1.13
2023-01-09T20:02:28.453Z,1.30
2023-01-09T20:04:57.407Z,1.30
2023-01-09T20:07:25.060Z,1.20
2023-01-09T20:09:52.749Z,1.27
2023-01-09T20:12:20.352Z,0.90
2023-01-09T20:14:48.133Z,1.00
2023-01-09T20:17:16.509Z,0.90
2023-01-09T20:19:45.459Z,1.00
2023-01-09T20:22:14.417Z,0.90
2023-01-09T20:24:42.271Z,1.20
2023-01-09T20:27:09.937Z,0.90
2023-01-09T20:29:37.664Z,1.10
2023-01-09T20:32:06.233Z,0.90
2023-01-09T20:34:33.918Z,0.90
2023-01-09T20:37:01.652Z,1.10
2023-01-09T20:39:30.686Z,1.07
2023-01-09T20:41:58.335Z,1.17
2023-01-09T20:44:25.986Z,0.90
2023-01-09T20:46:53.691Z,1.30
2023-01-09T20:49:21.584Z,1.00
2023-01-09T20:51:50.689Z,0.90
2023-01-09T20:54:21.090Z,1.07
2023-01-09T20:56:50.307Z,0.90
2023-01-09T20:59:20.167Z,1.00
2023-01-09T21:01:47.828Z,0.80
2023-01-09T21:04:15.650Z,1.00
2023-01-09T21:06:43.643Z,1.07
2023-01-09T21:09:11.367Z,1.13
2023-01-09T21:11:39.059Z,1.00
2023-01-09T21:14:08.078Z,1.00
2023-01-09T21:16:35.773Z,0.90
2023-01-09T21:19:03.488Z,1.00
2023-01-09T21:21:31.199Z,0.90
2023-01-09T21:24:00.429Z,0.90
2023-01-09T21:26:30.277Z,0.90
2023-01-09T21:28:58.794Z,1.00
2023-01-09T21:31:30.773Z,1.00
2023-01-09T21:33:58.481Z,1.00
2023-01-09T21:36:26.129Z,0.87
2023-01-09T21:38:54.095Z,0.90
2023-01-09T21:41:36.145Z,0.97
2023-01-09T21:44:12.009Z,0.90
2023-01-09T21:46:51.422Z,1.00
2023-01-09T21:49:19.442Z,1.20
2023-01-09T21:51:47.133Z,1.30
2023-01-09T21:54:14.895Z,0.90
2023-01-09T21:56:42.658Z,0.80
2023-01-09T21:59:11.295Z,0.90
2023-01-09T22:01:39.006Z,1.00
2023-01-09T22:04:08.043Z,0.93
2023-01-09T22:06:35.953Z,1.00
2023-01-09T22:09:03.635Z,0.90
2023-01-09T22:11:31.447Z,1.00
2023-01-09T22:14:00.459Z,0.90
2023-01-09T22:16:28.176Z,0.80
2023-01-09T22:18:56.078Z,0.90
2023-01-09T22:21:26.150Z,0.90
2023-01-09T22:23:54.164Z,0.90
2023-01-09T22:26:22.073Z,0.80
2023-01-09T22:28:50.062Z,1.20
2023-01-09T22:31:18.641Z,1.10
2023-01-09T22:33:49.911Z,0.90
2023-01-09T22:36:18.236Z,0.90
2023-01-09T22:38:47.201Z,1.13
2023-01-09T22:41:14.870Z,0.90
2023-01-09T22:43:42.508Z,0.93
2023-01-09T22:46:11.720Z,0.80
2023-01-09T22:48:39.976Z,1.00
2023-01-09T22:51:08.470Z,0.80
2023-01-09T22:53:36.267Z,0.90
2023-01-09T22:56:08.181Z,0.80
2023-01-09T22:58:36.058Z,0.80
2023-01-09T23:01:04.316Z,0.90
2023-01-09T23:03:57.591Z,0.80
2023-01-09T23:06:25.531Z,1.10
2023-01-09T23:08:54.011Z,0.90
2023-01-09T23:11:38.327Z,0.90
2023-01-09T23:14:06.066Z,1.00
2023-01-09T23:16:33.826Z,0.80
2023-01-09T23:19:02.241Z,0.93
2023-01-09T23:21:29.903Z,1.13
2023-01-09T23:23:57.606Z,1.17
2023-01-09T23:26:26.774Z,0.80
2023-01-09T23:28:54.455Z,1.10
2023-01-09T23:31:22.444Z,1.00
2023-01-09T23:33:52.069Z,0.97
2023-01-09T23:36:22.396Z,1.00
2023-01-09T23:38:50.256Z,1.13
2023-01-09T23:41:18.248Z,0.80
2023-01-09T23:43:46.289Z,0.80
2023-01-09T23:46:14.273Z,0.90
2023-01-09T23:48:41.957Z,1.00
2023-01-09T23:51:09.734Z,0.90
2023-01-09T23:53:37.381Z,1.10
2023-01-09T23:56:22.745Z,1.20
2023-01-09T23:58:51.836Z,0.80
